Time;durP1;ratioP1;P1;durP2;ratioP2;P2;SDS_P1;SDS_P2;PMS_P1;PMS_P2;Temp;Humidity;BMP_temperature;BMP_pressure;BME280_temperature;BME280_humidity;BME280_pressure;Samples;Min_cycle;Max_cycle;Signal;HPM_P1;HPM_P2
2022/07/16 00:03:33;;;;;;;5.43;1.70;;;26.10;39.30;;;;;;7377814;19;20026;-81
2022/07/16 00:06:02;;;;;;;;;;;26.10;39.50;;;;;;7378492;19;20082;-81
2022/07/16 00:08:31;;;;;;;5.68;1.85;;;26.00;39.40;;;;;;7408386;19;19926;-82
2022/07/16 00:10:59;;;;;;;6.05;2.80;;;26.00;39.60;;;;;;7378047;19;20114;-81
2022/07/16 00:13:28;;;;;;;7.40;1.92;;;25.90;39.50;;;;;;7375555;19;20086;-81
2022/07/16 00:15:57;;;;;;;3.95;1.80;;;25.80;39.60;;;;;;7376660;19;20018;-81
2022/07/16 00:21:09;;;;;;;7.72;1.80;;;25.80;39.90;;;;;;7374715;19;20074;-81
2022/07/16 00:23:38;;;;;;;3.85;1.77;;;25.80;39.70;;;;;;7397768;19;20091;-81
2022/07/16 00:26:07;;;;;;;5.00;1.60;;;25.80;39.80;;;;;;7383116;19;20496;-81
2022/07/16 00:28:36;;;;;;;8.50;2.08;;;25.80;39.90;;;;;;7380585;19;20023;-81
2022/07/16 00:31:05;;;;;;;5.75;1.90;;;25.80;40.00;;;;;;7375410;19;20651;-81
2022/07/16 00:33:33;;;;;;;2.67;1.83;;;25.80;40.10;;;;;;7374935;19;20444;-81
2022/07/16 00:36:02;;;;;;;6.88;1.80;;;25.80;40.10;;;;;;7375816;19;20807;-80
2022/07/16 00:38:33;;;;;;;5.25;1.67;;;25.70;40.30;;;;;;7399446;19;20014;-81
2022/07/16 00:41:02;;;;;;;4.10;1.88;;;25.70;40.40;;;;;;7377978;19;20018;-81
2022/07/16 00:43:31;;;;;;;5.50;1.95;;;25.60;40.50;;;;;;7377532;19;20011;-80
2022/07/16 00:46:00;;;;;;;6.40;1.98;;;25.60;40.70;;;;;;7381073;19;20101;-81
2022/07/16 00:48:28;;;;;;;4.28;1.60;;;25.60;40.50;;;;;;7376898;19;20078;-81
2022/07/16 00:50:57;;;;;;;6.32;2.00;;;25.50;40.60;;;;;;7375982;19;20102;-80
2022/07/16 00:53:26;;;;;;;2.63;1.73;;;25.50;40.70;;;;;;7398840;19;20019;-81
2022/07/16 00:55:57;;;;;;;7.05;1.88;;;25.50;40.90;;;;;;7377245;19;20024;-81
2022/07/16 00:58:26;;;;;;;;;;;25.40;40.90;;;;;;7377745;19;20018;-80
2022/07/16 01:00:55;;;;;;;6.10;1.65;;;25.40;41.00;;;;;;7374091;19;19930;-81
2022/07/16 01:03:23;;;;;;;8.05;1.85;;;25.20;40.90;;;;;;7379507;19;20433;-81
2022/07/16 01:05:52;;;;;;;5.35;1.67;;;25.20;41.10;;;;;;7404875;19;20635;-81
2022/07/16 01:08:21;;;;;;;3.45;1.60;;;25.10;41.10;;;;;;7374816;19;20022;-81
2022/07/16 01:10:51;;;;;;;6.43;1.70;;;25.00;41.20;;;;;;7375881;19;20019;-81
2022/07/16 01:13:22;;;;;;;3.72;1.55;;;25.00;41.30;;;;;;7375797;19;20015;-80
2022/07/16 01:15:51;;;;;;;4.22;1.80;;;25.00;41.50;;;;;;7375966;19;20656;-81
2022/07/16 01:18:20;;;;;;;5.43;1.83;;;24.90;41.60;;;;;;7377985;19;20083;-81
2022/07/16 01:20:49;;;;;;;3.17;1.85;;;24.90;41.70;;;;;;7399364;19;20010;-81
2022/07/16 01:23:24;;;;;;;7.20;2.38;;;25.00;41.80;;;;;;7379858;19;20032;-82
2022/07/16 01:25:53;;;;;;;6.97;1.85;;;24.90;41.90;;;;;;7378308;19;20109;-81
2022/07/16 01:28:22;;;;;;;4.07;2.05;;;24.90;41.90;;;;;;7381091;19;20017;-81
2022/07/16 01:30:52;;;;;;;8.10;1.90;;;24.90;42.10;;;;;;7380499;19;20023;-78
2022/07/16 01:33:22;;;;;;;3.60;1.73;;;24.90;42.10;;;;;;7375379;19;20016;-77
2022/07/16 01:35:53;;;;;;;4.47;1.95;;;25.00;42.10;;;;;;7396142;19;20017;-77
2022/07/16 01:38:24;;;;;;;5.50;2.13;;;25.00;42.10;;;;;;7373838;19;20458;-77
2022/07/16 01:40:53;;;;;;;9.05;2.35;;;25.10;42.30;;;;;;7372997;19;20078;-77
2022/07/16 01:43:24;;;;;;;7.57;2.30;;;25.10;42.30;;;;;;7373970;19;20093;-77
2022/07/16 01:45:53;;;;;;;6.53;2.50;;;25.10;42.20;;;;;;7374133;19;20835;-77
2022/07/16 01:48:23;;;;;;;4.50;1.77;;;25.10;42.10;;;;;;7373570;19;20025;-77
2022/07/16 01:50:52;;;;;;;8.27;2.20;;;25.00;41.90;;;;;;7391751;19;20430;-77
2022/07/16 01:53:24;;;;;;;4.28;1.80;;;24.90;42.00;;;;;;7373231;19;20448;-77
2022/07/16 01:55:53;;;;;;;4.63;2.20;;;24.90;41.90;;;;;;7373529;19;20018;-77
2022/07/16 01:58:22;;;;;;;2.95;1.90;;;24.90;42.10;;;;;;7372274;19;20468;-77
2022/07/16 02:00:51;;;;;;;5.90;2.00;;;24.90;42.20;;;;;;7372270;19;20018;-77
2022/07/16 02:03:20;;;;;;;5.63;1.90;;;24.90;42.40;;;;;;7371997;19;20916;-77
2022/07/16 02:05:48;;;;;;;11.30;2.10;;;24.90;42.40;;;;;;7394390;19;20014;-77
2022/07/16 02:08:17;;;;;;;4.28;2.00;;;24.90;42.50;;;;;;7372997;19;20018;-77
2022/07/16 02:10:49;;;;;;;5.28;1.88;;;24.80;42.50;;;;;;7371845;19;20432;-76
2022/07/16 02:13:17;;;;;;;;;;;24.80;43.10;;;;;;7372525;19;20342;-76
2022/07/16 02:15:46;;;;;;;5.28;2.17;;;24.80;42.50;;;;;;7373598;19;19911;-77
2022/07/16 02:18:15;;;;;;;3.78;1.63;;;24.70;42.70;;;;;;7373247;19;20027;-77
2022/07/16 02:20:43;;;;;;;3.88;2.35;;;24.60;42.90;;;;;;7393472;19;20421;-77
2022/07/16 02:23:12;;;;;;;8.45;2.13;;;24.60;43.10;;;;;;7369799;19;20453;-76
2022/07/16 02:25:41;;;;;;;6.60;2.10;;;24.60;43.10;;;;;;7373022;19;20077;-77
2022/07/16 02:28:12;;;;;;;6.53;2.15;;;24.60;43.10;;;;;;7370168;19;20336;-77
2022/07/16 02:30:44;;;;;;;8.18;2.55;;;24.60;43.00;;;;;;7369489;19;20027;-76
2022/07/16 02:33:15;;;;;;;8.90;2.50;;;24.60;43.00;;;;;;7372071;19;20114;-77
2022/07/16 02:35:44;;;;;;;4.07;2.03;;;24.60;43.10;;;;;;7393266;19;20387;-76
2022/07/16 02:38:14;;;;;;;3.00;2.17;;;24.50;43.20;;;;;;7371675;19;20014;-77
2022/07/16 02:40:44;;;;;;;5.88;2.20;;;24.50;43.30;;;;;;7372355;19;20089;-76
2022/07/16 02:43:16;;;;;;;11.13;2.70;;;24.50;43.30;;;;;;7371671;19;20065;-76
2022/07/16 02:45:45;;;;;;;6.50;2.20;;;24.50;43.30;;;;;;7373381;19;20078;-76
2022/07/16 02:48:14;;;;;;;3.58;2.20;;;24.40;43.40;;;;;;7371703;19;20416;-77
2022/07/16 02:50:42;;;;;;;4.88;2.42;;;24.40;43.30;;;;;;7392824;19;20624;-77
2022/07/16 02:53:11;;;;;;;5.25;1.98;;;24.40;43.30;;;;;;7370150;19;20037;-76
2022/07/16 02:55:40;;;;;;;5.90;2.35;;;24.40;43.50;;;;;;7372617;19;20085;-76
2022/07/16 02:58:09;;;;;;;5.63;2.45;;;24.40;44.20;;;;;;7372764;19;20022;-76
2022/07/16 03:00:40;;;;;;;6.28;2.30;;;24.30;43.60;;;;;;7370098;19;20086;-76
2022/07/16 03:03:09;;;;;;;5.97;2.70;;;24.30;43.70;;;;;;7372238;19;20085;-77
2022/07/16 03:05:38;;;;;;;9.82;2.90;;;24.30;43.70;;;;;;7392328;19;20082;-77
2022/07/16 03:08:07;;;;;;;9.38;3.13;;;24.20;43.50;;;;;;7370728;19;20021;-77
2022/07/16 03:10:36;;;;;;;8.43;2.75;;;24.20;43.60;;;;;;7371140;19;20014;-77
2022/07/16 03:13:05;;;;;;;7.20;2.90;;;24.20;43.60;;;;;;7370439;19;20070;-77
2022/07/16 03:15:33;;;;;;;7.22;2.53;;;24.20;43.50;;;;;;7369057;19;20027;-77
2022/07/16 03:18:05;;;;;;;10.35;2.80;;;24.10;43.60;;;;;;7373439;19;20310;-77
2022/07/16 03:20:34;;;;;;;6.53;2.55;;;24.00;43.80;;;;;;7400026;19;20033;-76
2022/07/16 03:23:02;;;;;;;10.52;2.95;;;24.00;44.10;;;;;;7372490;19;20013;-77
2022/07/16 03:25:32;;;;;;;5.05;2.55;;;23.90;44.20;;;;;;7375072;19;20127;-76
2022/07/16 03:28:01;;;;;;;5.63;2.65;;;24.00;44.30;;;;;;7362026;19;20045;-77
2022/07/16 03:30:29;;;;;;;5.88;2.60;;;23.90;44.90;;;;;;7365209;19;20738;-77
2022/07/16 03:33:00;;;;;;;7.25;3.10;;;23.90;44.30;;;;;;7372667;19;20082;-77
2022/07/16 03:35:32;;;;;;;6.15;2.50;;;23.90;44.30;;;;;;7396843;19;20018;-77
2022/07/16 03:40:42;;;;;;;3.92;2.47;;;23.80;44.60;;;;;;7369834;19;20024;-77
2022/07/16 03:43:10;;;;;;;4.22;2.78;;;23.80;44.60;;;;;;7368429;19;20082;-77
2022/07/16 03:45:39;;;;;;;4.57;2.63;;;23.80;44.60;;;;;;7373311;19;20130;-77
2022/07/16 03:48:08;;;;;;;9.15;2.70;;;23.70;44.50;;;;;;7371172;19;20337;-77
2022/07/16 03:50:40;;;;;;;9.05;3.20;;;23.70;44.50;;;;;;7390103;19;20031;-77
2022/07/16 03:53:08;;;;;;;7.93;2.58;;;23.70;44.60;;;;;;7370141;19;20022;-77
2022/07/16 03:55:37;;;;;;;6.88;2.75;;;23.60;44.70;;;;;;7373154;19;20151;-77
2022/07/16 03:58:09;;;;;;;4.93;2.60;;;23.50;44.80;;;;;;7373623;19;20078;-76
2022/07/16 04:00:37;;;;;;;6.78;2.78;;;23.50;45.00;;;;;;7369300;19;20014;-77
2022/07/16 04:03:06;;;;;;;6.25;2.80;;;23.50;45.70;;;;;;7368141;19;20031;-77
2022/07/16 04:05:35;;;;;;;6.13;2.50;;;23.50;45.10;;;;;;7390477;19;20082;-77
2022/07/16 04:08:09;;;;;;;9.75;2.50;;;23.40;45.20;;;;;;7372847;19;20018;-76
2022/07/16 04:10:38;;;;;;;6.03;2.38;;;23.40;45.20;;;;;;7370775;19;20010;-77
2022/07/16 04:13:06;;;;;;;5.85;2.70;;;23.40;45.40;;;;;;7369707;19;20436;-77
2022/07/16 04:15:35;;;;;;;4.40;2.30;;;23.40;45.40;;;;;;7367733;19;20444;-77
2022/07/16 04:18:04;;;;;;;3.00;2.20;;;23.40;45.40;;;;;;7373415;19;20022;-77
2022/07/16 04:20:33;;;;;;;6.05;2.45;;;23.30;45.00;;;;;;7386115;19;20042;-77
2022/07/16 04:23:01;;;;;;;10.18;2.75;;;23.30;45.40;;;;;;7368734;19;20014;-77
2022/07/16 04:25:33;;;;;;;5.80;2.45;;;23.30;45.50;;;;;;7369956;19;20099;-77
2022/07/16 04:28:02;;;;;;;5.18;2.50;;;23.30;45.50;;;;;;7369884;19;20018;-77
2022/07/16 04:30:30;;;;;;;7.50;2.45;;;23.30;45.50;;;;;;7370314;19;20018;-77
2022/07/16 04:32:59;;;;;;;10.52;2.95;;;23.30;45.60;;;;;;7367059;19;20438;-77
2022/07/16 04:35:28;;;;;;;6.05;3.10;;;23.30;45.50;;;;;;7387823;19;20027;-77
2022/07/16 04:37:57;;;;;;;4.82;2.60;;;23.30;45.70;;;;;;7372844;19;20022;-77
2022/07/16 04:40:26;;;;;;;6.70;2.55;;;23.30;45.60;;;;;;7374271;19;20086;-76
2022/07/16 04:42:57;;;;;;;5.18;2.47;;;23.40;45.70;;;;;;7374178;19;20125;-76
2022/07/16 04:45:26;;;;;;;9.07;2.80;;;23.30;45.70;;;;;;7372133;19;20089;-76
2022/07/16 04:47:55;;;;;;;9.07;2.90;;;23.30;45.70;;;;;;7384456;19;20041;-76
2022/07/16 04:50:24;;;;;;;5.38;2.38;;;23.40;45.70;;;;;;7396762;19;20027;-77
2022/07/16 04:52:52;;;;;;;6.70;2.83;;;23.40;45.80;;;;;;7373723;19;20047;-77
2022/07/16 04:55:21;;;;;;;6.85;3.00;;;23.40;45.80;;;;;;7375954;19;20415;-77
2022/07/16 04:57:50;;;;;;;9.07;3.10;;;23.50;46.00;;;;;;7372828;19;20035;-77
2022/07/16 05:00:21;;;;;;;5.43;2.72;;;23.40;46.10;;;;;;7374411;19;20035;-77
2022/07/16 05:02:59;;;;;;;9.30;3.03;;;23.40;46.00;;;;;;7396737;19;20031;-77
2022/07/16 05:05:29;;;;;;;9.80;2.83;;;23.40;46.20;;;;;;7374908;19;20641;-77
2022/07/16 05:07:58;;;;;;;6.77;3.00;;;23.40;46.30;;;;;;7373076;19;20082;-76
2022/07/16 05:10:28;;;;;;;8.50;2.80;;;23.40;46.40;;;;;;7374515;19;20311;-77
2022/07/16 05:12:57;;;;;;;13.45;3.13;;;23.40;46.40;;;;;;7373510;19;20014;-77
2022/07/16 05:15:29;;;;;;;11.88;3.00;;;23.40;46.60;;;;;;7372967;19;20509;-77
2022/07/16 05:17:58;;;;;;;7.57;2.88;;;23.40;46.60;;;;;;7372024;19;20018;-77
2022/07/16 05:20:27;;;;;;;7.45;2.67;;;23.50;46.80;;;;;;7392686;19;20328;-76
2022/07/16 05:22:55;;;;;;;5.47;2.88;;;23.50;46.80;;;;;;7371981;19;20035;-77
2022/07/16 05:25:25;;;;;;;8.90;3.08;;;23.50;46.70;;;;;;7373588;19;20010;-77
2022/07/16 05:27:53;;;;;;;7.88;2.83;;;23.50;46.80;;;;;;7373797;19;20025;-77
2022/07/16 05:30:22;;;;;;;7.93;3.10;;;23.50;46.80;;;;;;7372658;19;20469;-77
2022/07/16 05:32:54;;;;;;;8.13;2.47;;;23.50;46.90;;;;;;7393315;19;20081;-77
2022/07/16 05:35:23;;;;;;;7.32;3.00;;;23.60;46.90;;;;;;7369505;19;20044;-77
2022/07/16 05:37:51;;;;;;;9.27;3.17;;;23.60;47.00;;;;;;7374810;19;20029;-76
2022/07/16 05:40:20;;;;;;;3.63;2.05;;;23.70;47.10;;;;;;7373252;19;20077;-76
2022/07/16 05:42:49;;;;;;;8.45;2.58;;;23.70;47.00;;;;;;7374291;19;20018;-76
2022/07/16 05:45:19;;;;;;;6.13;2.67;;;23.80;47.10;;;;;;7372251;19;20031;-76
2022/07/16 05:47:47;;;;;;;6.82;2.70;;;23.80;47.00;;;;;;7395482;19;20026;-76
2022/07/16 05:50:19;;;;;;;5.20;2.70;;;23.80;47.00;;;;;;7371566;19;20019;-77
2022/07/16 05:52:47;;;;;;;5.55;2.75;;;23.80;47.00;;;;;;7373889;19;20101;-76
2022/07/16 05:55:16;;;;;;;8.07;2.70;;;23.80;47.20;;;;;;7371330;19;20011;-76
2022/07/16 05:57:45;;;;;;;8.77;2.60;;;23.80;47.30;;;;;;7372698;19;20382;-77
2022/07/16 06:00:14;;;;;;;8.95;2.70;;;23.90;47.40;;;;;;7371221;19;20627;-76
2022/07/16 06:02:44;;;;;;;6.80;2.47;;;23.90;47.10;;;;;;7393349;19;20020;-77
2022/07/16 06:05:13;;;;;;;6.68;2.10;;;23.90;47.20;;;;;;7372335;19;20014;-76
2022/07/16 06:07:44;;;;;;;6.00;2.50;;;23.90;46.20;;;;;;7372463;19;20011;-76
2022/07/16 06:10:13;;;;;;;;;;;24.00;46.50;;;;;;7372353;19;20045;-77
2022/07/16 06:12:42;;;;;;;4.70;2.13;;;24.10;46.40;;;;;;7373198;19;20412;-77
2022/07/16 06:15:13;;;;;;;4.30;2.40;;;24.00;45.30;;;;;;7371810;19;20021;-77
2022/07/16 06:17:43;;;;;;;10.02;2.53;;;24.10;45.40;;;;;;7393601;19;20035;-77
2022/07/16 06:20:13;;;;;;;6.05;2.55;;;24.10;45.30;;;;;;7372308;19;20078;-77
2022/07/16 06:22:44;;;;;;;7.72;2.20;;;24.10;45.10;;;;;;7368564;19;20090;-77
2022/07/16 06:25:12;;;;;;;;;;;24.20;45.10;;;;;;7372722;19;20010;-77
2022/07/16 06:27:44;;;;;;;8.45;2.40;;;24.30;45.10;;;;;;7369173;19;19963;-77
2022/07/16 06:30:13;;;;;;;;;;;24.30;44.80;;;;;;7370474;19;20015;-77
2022/07/16 06:32:42;;;;;;;10.15;2.80;;;24.40;44.90;;;;;;7391750;19;20435;-77
2022/07/16 06:35:12;;;;;;;8.32;2.75;;;24.40;44.70;;;;;;7369582;19;20501;-77
2022/07/16 06:37:40;;;;;;;11.20;2.58;;;24.40;44.50;;;;;;7370605;19;20085;-77
2022/07/16 06:40:17;;;;;;;5.53;2.22;;;24.40;44.70;;;;;;7371482;19;20124;-77
2022/07/16 06:42:46;;;;;;;14.38;2.20;;;24.50;44.80;;;;;;7370273;19;20018;-77
2022/07/16 06:45:15;;;;;;;7.30;2.40;;;24.60;44.40;;;;;;7371330;19;20107;-77
2022/07/16 06:47:43;;;;;;;10.10;2.28;;;24.60;44.30;;;;;;7392568;19;20022;-77
2022/07/16 06:50:13;;;;;;;8.70;2.13;;;24.70;44.30;;;;;;7368662;19;20085;-77
2022/07/16 06:52:42;;;;;;;10.45;2.70;;;24.70;44.10;;;;;;7369842;19;20624;-77
2022/07/16 06:55:13;;;;;;;6.93;2.28;;;24.80;43.90;;;;;;7370617;19;20018;-77
2022/07/16 06:57:42;;;;;;;5.70;2.40;;;24.80;43.60;;;;;;7368641;19;20086;-77
2022/07/16 07:00:12;;;;;;;8.07;2.28;;;24.90;43.50;;;;;;7368641;19;20022;-77
2022/07/16 07:02:41;;;;;;;8.05;2.53;;;24.90;43.40;;;;;;7390904;19;20015;-78
2022/07/16 07:05:11;;;;;;;11.60;2.50;;;24.90;43.50;;;;;;7369033;19;20024;-77
2022/07/16 07:07:39;;;;;;;5.55;2.50;;;24.90;43.50;;;;;;7368092;19;20730;-77
2022/07/16 07:10:09;;;;;;;6.63;2.38;;;24.90;43.50;;;;;;7375046;19;20054;-77
2022/07/16 07:12:40;;;;;;;5.13;2.33;;;25.00;43.60;;;;;;7377672;19;20102;-77
2022/07/16 07:15:10;;;;;;;6.13;2.20;;;25.10;43.20;;;;;;7375472;19;20106;-77
2022/07/16 07:17:39;;;;;;;8.10;2.22;;;24.90;43.20;;;;;;7391144;19;20106;-77
2022/07/16 07:20:08;;;;;;;5.45;2.20;;;24.90;43.40;;;;;;7369701;19;20066;-77
2022/07/16 07:22:37;;;;;;;7.78;2.50;;;25.00;43.60;;;;;;7370651;19;20086;-77
2022/07/16 07:25:06;;;;;;;7.82;2.78;;;25.10;43.50;;;;;;7368906;19;20070;-77
2022/07/16 07:27:35;;;;;;;18.23;2.88;;;25.10;43.10;;;;;;7366517;19;20010;-76
2022/07/16 07:30:08;;;;;;;10.70;2.85;;;25.20;43.10;;;;;;7368789;19;20383;-77
2022/07/16 07:32:37;;;;;;;13.70;2.40;;;25.10;43.10;;;;;;7390565;19;20029;-77
2022/07/16 07:35:07;;;;;;;6.63;2.45;;;25.00;43.10;;;;;;7366833;19;20011;-77
2022/07/16 07:37:36;;;;;;;6.95;2.42;;;24.90;43.10;;;;;;7369270;19;20017;-77
2022/07/16 07:40:05;;;;;;;5.75;2.63;;;25.00;43.20;;;;;;7369306;19;20102;-77
2022/07/16 07:42:34;;;;;;;6.40;2.47;;;25.10;43.30;;;;;;7368754;19;20090;-77
2022/07/16 07:45:05;;;;;;;6.95;2.00;;;25.10;43.10;;;;;;7368267;19;20025;-77
2022/07/16 07:47:34;;;;;;;5.95;1.90;;;25.00;42.90;;;;;;7391020;19;20465;-77
2022/07/16 07:50:04;;;;;;;7.75;2.00;;;25.10;42.90;;;;;;7368910;19;20086;-77
2022/07/16 07:52:32;;;;;;;9.93;2.28;;;25.20;42.60;;;;;;7368535;19;20456;-77
2022/07/16 07:55:01;;;;;;;3.53;2.08;;;25.20;42.50;;;;;;7366272;19;20085;-77
2022/07/16 07:57:30;;;;;;;6.68;2.05;;;25.20;42.80;;;;;;7369422;19;20010;-77
2022/07/16 07:59:58;;;;;;;3.38;1.90;;;25.10;42.40;;;;;;7366218;19;20020;-77
2022/07/16 08:02:30;;;;;;;10.52;2.65;;;25.10;42.10;;;;;;7391136;19;20117;-77
2022/07/16 08:04:58;;;;;;;;;;;25.20;42.40;;;;;;7367210;19;20089;-77
2022/07/16 08:07:27;;;;;;;6.68;2.20;;;25.20;42.40;;;;;;7367508;19;19953;-77
2022/07/16 08:09:56;;;;;;;6.55;2.17;;;25.30;42.10;;;;;;7367082;19;20082;-76
2022/07/16 08:12:25;;;;;;;6.57;2.00;;;25.40;41.90;;;;;;7367913;19;20082;-76
2022/07/16 08:14:53;;;;;;;4.03;1.90;;;25.40;41.50;;;;;;7389747;19;20672;-77
2022/07/16 08:17:22;;;;;;;4.93;1.75;;;25.30;40.90;;;;;;7369337;19;20015;-76
2022/07/16 08:19:54;;;;;;;3.03;1.77;;;25.30;41.00;;;;;;7375933;19;20295;-77
2022/07/16 08:22:22;;;;;;;7.10;1.90;;;25.40;41.20;;;;;;7375277;19;20014;-77
2022/07/16 08:27:32;;;;;;;9.93;1.80;;;25.50;40.90;;;;;;7374691;19;20010;-76
2022/07/16 08:30:01;;;;;;;4.90;1.50;;;25.50;40.00;;;;;;7371738;19;20109;-78
2022/07/16 08:32:29;;;;;;;3.33;2.03;;;25.40;40.20;;;;;;7393878;19;20394;-78
2022/07/16 08:35:01;;;;;;;8.15;2.00;;;25.60;40.50;;;;;;7372460;19;20086;-77
2022/07/16 08:37:35;;;;;;;5.22;2.35;;;25.70;40.40;;;;;;7372136;19;20018;-77
2022/07/16 08:40:05;;;;;;;5.63;1.90;;;25.80;40.40;;;;;;7373352;19;20487;-77
2022/07/16 08:42:35;;;;;;;5.38;2.00;;;25.90;40.30;;;;;;7373599;19;20015;-76
2022/07/16 08:45:05;;;;;;;2.10;1.60;;;26.00;39.80;;;;;;7375214;19;20709;-76
2022/07/16 08:47:36;;;;;;;5.40;1.70;;;26.10;39.50;;;;;;7396619;19;20101;-76
2022/07/16 08:50:10;;;;;;;4.22;1.58;;;26.10;39.20;;;;;;7373071;19;20082;-77
2022/07/16 08:52:42;;;;;;;4.43;1.70;;;26.10;39.10;;;;;;7374560;19;20018;-76
2022/07/16 08:55:11;;;;;;;8.93;2.50;;;26.10;38.60;;;;;;7374203;19;20039;-77
2022/07/16 08:57:41;;;;;;;7.53;1.85;;;26.10;38.60;;;;;;7372458;19;20014;-77
2022/07/16 09:00:13;;;;;;;3.50;1.90;;;26.20;38.70;;;;;;7373052;19;20042;-77
2022/07/16 09:02:43;;;;;;;10.70;1.83;;;26.10;38.50;;;;;;7395055;19;20035;-76
2022/07/16 09:05:14;;;;;;;6.38;2.00;;;26.20;38.50;;;;;;7372872;19;20015;-77
2022/07/16 09:07:44;;;;;;;9.60;2.00;;;26.00;38.40;;;;;;7372774;19;20414;-77
2022/07/16 09:10:13;;;;;;;5.22;1.90;;;25.80;38.60;;;;;;7373957;19;20021;-77
2022/07/16 09:12:44;;;;;;;6.25;1.80;;;25.90;38.80;;;;;;7374228;19;20015;-77
2022/07/16 09:15:28;;;;;;;4.25;1.80;;;26.00;38.40;;;;;;7369490;19;20018;-76
2022/07/16 09:18:15;;;;;;;5.63;1.85;;;26.00;38.10;;;;;;7372218;19;20397;-78
2022/07/16 09:20:49;;;;;;;6.50;1.80;;;26.10;38.20;;;;;;7393975;19;20025;-78
2022/07/16 09:23:27;;;;;;;5.57;1.80;;;26.20;38.40;;;;;;7371000;19;20482;-76
2022/07/16 09:25:58;;;;;;;3.42;1.60;;;26.10;38.00;;;;;;7369660;19;20037;-75
2022/07/16 09:28:28;;;;;;;5.70;1.90;;;26.10;37.50;;;;;;7369899;19;20057;-78
2022/07/16 09:30:57;;;;;;;4.40;1.52;;;25.90;38.00;;;;;;7370539;19;20086;-77
2022/07/16 09:33:26;;;;;;;5.10;1.52;;;26.00;37.90;;;;;;7371196;19;20018;-76
2022/07/16 09:36:11;;;;;;;5.78;1.80;;;26.10;37.40;;;;;;7381029;19;20026;-77
2022/07/16 09:38:50;;;;;;;7.05;2.05;;;26.20;37.20;;;;;;7393749;19;20103;-77
2022/07/16 09:41:20;;;;;;;3.13;1.60;;;26.30;37.00;;;;;;7371058;19;20191;-77
2022/07/16 09:43:48;;;;;;;2.58;1.55;;;26.30;36.80;;;;;;7370649;19;20521;-78
2022/07/16 09:46:19;;;;;;;3.40;1.73;;;26.40;36.60;;;;;;7370459;19;20039;-78
2022/07/16 09:48:48;;;;;;;5.45;1.75;;;26.50;37.00;;;;;;7371542;19;20416;-77
2022/07/16 09:51:25;;;;;;;4.10;1.77;;;26.50;37.10;;;;;;7371182;19;20055;-77
2022/07/16 09:53:55;;;;;;;6.00;1.75;;;26.60;37.20;;;;;;7393097;19;20041;-77
2022/07/16 09:56:25;;;;;;;3.33;1.45;;;26.60;37.10;;;;;;7369556;19;20015;-77
2022/07/16 09:58:55;;;;;;;4.28;1.73;;;26.70;36.40;;;;;;7373469;19;20098;-77
2022/07/16 10:01:24;;;;;;;11.32;1.83;;;26.60;36.30;;;;;;7372746;19;20086;-79
2022/07/16 10:03:54;;;;;;;7.63;2.00;;;26.70;36.70;;;;;;7372769;19;20638;-78
2022/07/16 10:06:25;;;;;;;3.88;1.75;;;26.70;36.60;;;;;;7371170;19;20018;-78
2022/07/16 10:08:54;;;;;;;3.83;1.83;;;26.70;36.00;;;;;;7389291;19;20030;-77
2022/07/16 10:11:23;;;;;;;4.90;1.65;;;26.70;35.90;;;;;;7392047;19;20020;-77
2022/07/16 10:13:54;;;;;;;8.27;2.40;;;26.70;36.30;;;;;;7372175;19;20077;-78
2022/07/16 10:16:45;;;;;;;2.58;1.48;;;26.70;36.10;;;;;;7371061;19;20015;-77
2022/07/16 10:19:15;;;;;;;5.35;1.90;;;26.70;35.90;;;;;;7371415;19;20015;-83
2022/07/16 10:22:22;;;;;;;2.22;1.60;;;26.70;35.20;;;;;;7367595;19;20027;-77
2022/07/16 10:24:54;;;;;;;7.43;1.95;;;26.50;36.50;;;;;;7368279;19;20098;-77
2022/07/16 10:27:30;;;;;;;3.28;1.92;;;26.70;37.20;;;;;;7366112;19;20037;-77
2022/07/16 10:30:16;;;;;;;4.57;1.80;;;26.70;36.80;;;;;;7366825;19;20508;-78
2022/07/16 10:33:16;;;;;;;4.32;1.85;;;26.80;36.10;;;;;;7390864;19;20028;-78
2022/07/16 10:35:48;;;;;;;8.30;1.85;;;26.90;36.10;;;;;;7370887;19;20016;-77
2022/07/16 10:38:21;;;;;;;;;;;27.00;35.80;;;;;;7371028;19;20019;-78
2022/07/16 10:41:07;;;;;;;8.85;2.15;;;26.90;35.10;;;;;;7369350;19;19925;-78
2022/07/16 10:43:37;;;;;;;5.88;1.90;;;27.00;35.60;;;;;;7367872;19;20073;-78
2022/07/16 10:46:07;;;;;;;10.63;2.10;;;27.10;35.50;;;;;;7368289;19;20023;-77
2022/07/16 10:49:06;;;;;;;6.22;2.00;;;26.90;35.10;;;;;;7372989;19;20649;-78
2022/07/16 10:51:35;;;;;;;5.22;2.50;;;27.00;35.20;;;;;;7371313;19;20022;-77
2022/07/16 10:54:35;;;;;;;4.35;1.60;;;27.10;35.10;;;;;;7374157;19;20015;-78
2022/07/16 10:57:05;;;;;;;5.63;1.77;;;27.20;35.30;;;;;;7367545;19;20025;-78
2022/07/16 10:59:35;;;;;;;4.38;1.50;;;27.40;34.60;;;;;;7388842;19;20026;-78
2022/07/16 11:02:07;;;;;;;4.05;1.83;;;27.50;34.30;;;;;;7370073;19;20033;-78
2022/07/16 11:04:38;;;;;;;8.73;1.77;;;27.30;33.80;;;;;;7369769;19;20027;-78
2022/07/16 11:07:09;;;;;;;3.78;2.20;;;27.40;33.60;;;;;;7371996;19;20461;-76
2022/07/16 11:09:42;;;;;;;7.00;1.80;;;27.30;33.80;;;;;;7381302;19;20066;-77
2022/07/16 11:12:15;;;;;;;7.55;1.67;;;27.40;34.10;;;;;;7389052;19;20324;-76
2022/07/16 11:14:46;;;;;;;3.65;2.30;;;27.40;34.00;;;;;;7401296;19;20019;-77
2022/07/16 11:17:16;;;;;;;4.30;1.80;;;27.50;34.20;;;;;;7375284;19;20018;-77
2022/07/16 11:19:48;;;;;;;5.68;1.80;;;27.60;34.70;;;;;;7374797;19;20093;-77
2022/07/16 11:22:20;;;;;;;5.13;1.92;;;27.70;33.80;;;;;;7372308;19;20050;-77
2022/07/16 11:24:53;;;;;;;3.38;1.55;;;27.70;33.30;;;;;;7374439;19;20032;-77
2022/07/16 11:27:27;;;;;;;2.95;1.60;;;27.80;33.50;;;;;;7372342;19;20030;-77
2022/07/16 11:29:58;;;;;;;2.67;1.67;;;27.90;33.60;;;;;;7373186;19;20105;-76
2022/07/16 11:32:28;;;;;;;3.90;1.70;;;27.80;33.40;;;;;;7390541;19;20019;-76
2022/07/16 11:35:00;;;;;;;2.85;1.98;;;27.90;33.60;;;;;;7367022;19;20035;-76
2022/07/16 11:37:29;;;;;;;7.18;2.05;;;27.90;33.80;;;;;;7370449;19;20010;-76
2022/07/16 11:40:03;;;;;;;8.10;1.85;;;28.00;33.90;;;;;;7368787;19;20018;-77
2022/07/16 11:42:32;;;;;;;4.63;2.03;;;28.10;33.90;;;;;;7368752;19;20509;-76
2022/07/16 11:45:01;;;;;;;5.40;1.75;;;28.10;33.90;;;;;;7368676;19;20335;-77
2022/07/16 11:47:29;;;;;;;4.15;1.80;;;28.30;34.50;;;;;;7388139;19;20015;-76
2022/07/16 11:50:01;;;;;;;5.20;1.60;;;28.30;33.50;;;;;;7368787;19;20010;-76
2022/07/16 11:52:30;;;;;;;7.00;1.60;;;28.40;33.60;;;;;;7370769;19;20015;-77
2022/07/16 11:54:59;;;;;;;3.08;2.10;;;28.40;33.20;;;;;;7375676;19;20383;-76
2022/07/16 11:57:31;;;;;;;5.35;2.00;;;28.40;33.60;;;;;;7371732;19;20784;-75
2022/07/16 11:59:59;;;;;;;6.28;1.80;;;28.40;33.30;;;;;;7337778;19;20094;-75
2022/07/16 12:02:29;;;;;;;10.07;2.22;;;28.50;33.70;;;;;;7392483;19;20082;-74
2022/07/16 12:05:00;;;;;;;6.57;2.10;;;28.50;33.50;;;;;;7372389;19;20100;-75
2022/07/16 12:07:36;;;;;;;4.00;2.17;;;28.40;33.60;;;;;;7373552;19;20015;-74
2022/07/16 12:10:08;;;;;;;11.25;7.00;;;28.40;33.30;;;;;;7375599;19;20887;-74
2022/07/16 12:12:39;;;;;;;5.88;2.70;;;28.30;34.10;;;;;;7375735;19;20022;-74
2022/07/16 12:15:12;;;;;;;11.07;5.70;;;28.40;34.30;;;;;;7372270;19;20074;-74
2022/07/16 12:17:42;;;;;;;10.75;5.95;;;28.40;33.10;;;;;;7394364;19;20311;-73
2022/07/16 12:20:15;;;;;;;5.95;2.92;;;28.40;33.20;;;;;;7374143;19;20074;-73
2022/07/16 12:22:49;;;;;;;13.15;6.70;;;28.40;33.40;;;;;;7371914;19;20014;-73
2022/07/16 12:25:23;;;;;;;4.25;2.13;;;28.60;33.40;;;;;;7374916;19;20025;-74
2022/07/16 12:27:56;;;;;;;2.55;1.83;;;28.70;33.10;;;;;;7370706;19;20014;-73
2022/07/16 12:30:32;;;;;;;2.45;1.90;;;28.80;32.80;;;;;;7373150;19;20015;-74
2022/07/16 12:33:02;;;;;;;4.82;1.90;;;28.90;32.60;;;;;;7375081;19;20014;-74
2022/07/16 12:35:43;;;;;;;5.22;2.10;;;29.00;32.70;;;;;;7393183;19;20029;-74
2022/07/16 12:38:32;;;;;;;7.45;1.80;;;29.00;32.10;;;;;;7370435;19;20025;-77
2022/07/16 12:41:01;;;;;;;5.00;2.13;;;29.00;32.20;;;;;;7374220;19;20086;-77
2022/07/16 12:43:32;;;;;;;4.00;2.10;;;29.20;32.20;;;;;;7370428;19;20446;-77
2022/07/16 12:46:03;;;;;;;7.43;2.13;;;29.20;31.70;;;;;;7373629;19;20022;-77
2022/07/16 12:48:33;;;;;;;4.65;1.60;;;29.30;31.80;;;;;;7372993;19;20011;-77
2022/07/16 12:51:01;;;;;;;2.97;1.90;;;29.40;31.60;;;;;;7373257;19;20030;-77
2022/07/16 12:53:30;;;;;;;2.05;1.80;;;29.40;31.70;;;;;;7395002;19;20024;-77
2022/07/16 12:58:51;;;;;;;;;;;29.60;30.90;;;;;;7375791;19;20068;-77
2022/07/16 13:01:21;;;;;;;4.55;1.92;;;29.60;30.40;;;;;;7373097;19;19922;-78
2022/07/16 13:03:58;;;;;;;4.20;2.03;;;29.70;30.70;;;;;;7372535;19;20018;-78
2022/07/16 13:06:48;;;;;;;4.15;2.03;;;29.70;30.70;;;;;;7373503;19;20010;-78
2022/07/16 13:09:21;;;;;;;12.60;2.05;;;29.60;30.50;;;;;;7371909;19;20047;-78
2022/07/16 13:11:52;;;;;;;;;;;29.60;30.70;;;;;;7398769;19;20041;-78
2022/07/16 13:14:24;;;;;;;2.28;1.90;;;29.50;31.10;;;;;;7373596;19;19934;-78
2022/07/16 13:16:59;;;;;;;3.63;1.88;;;29.40;30.90;;;;;;7372659;19;20017;-80
2022/07/16 13:19:31;;;;;;;14.65;2.38;;;29.40;30.50;;;;;;7371671;19;20021;-80